sensor_id;sensor_type;location;lat;lon;timestamp;P1;durP1;ratioP1;P2;durP2;ratioP2
50012;SDS011;35901;48.694;9.476;2024-03-29T00:00:54;4.63;;;3.27;;
50012;SDS011;35901;48.694;9.476;2024-03-29T00:03:20;6.07;;;3.63;;
50012;SDS011;35901;48.694;9.476;2024-03-29T00:05:46;4.63;;;3.90;;
50012;SDS011;35901;48.694;9.476;2024-03-29T00:08:13;3.47;;;3.00;;
50012;SDS011;35901;48.694;9.476;2024-03-29T00:10:38;3.10;;;2.80;;
50012;SDS011;35901;48.694;9.476;2024-03-29T00:13:04;3.77;;;2.70;;
50012;SDS011;35901;48.694;9.476;2024-03-29T00:15:33;3.50;;;2.90;;
50012;SDS011;35901;48.694;9.476;2024-03-29T00:17:58;3.77;;;3.27;;
50012;SDS011;35901;48.694;9.476;2024-03-29T00:20:24;4.93;;;3.60;;
50012;SDS011;35901;48.694;9.476;2024-03-29T00:22:50;4.73;;;3.50;;
50012;SDS011;35901;48.694;9.476;2024-03-29T00:25:16;5.67;;;3.70;;
50012;SDS011;35901;48.694;9.476;2024-03-29T00:27:41;4.37;;;3.07;;
50012;SDS011;35901;48.694;9.476;2024-03-29T00:30:09;4.87;;;3.53;;
50012;SDS011;35901;48.694;9.476;2024-03-29T00:32:35;15.67;;;9.77;;
50012;SDS011;35901;48.694;9.476;2024-03-29T00:35:00;5.77;;;4.70;;
50012;SDS011;35901;48.694;9.476;2024-03-29T00:37:26;5.23;;;4.50;;
50012;SDS011;35901;48.694;9.476;2024-03-29T00:39:51;6.17;;;4.57;;
50012;SDS011;35901;48.694;9.476;2024-03-29T00:42:17;7.77;;;4.70;;
50012;SDS011;35901;48.694;9.476;2024-03-29T00:44:44;4.93;;;4.30;;
50012;SDS011;35901;48.694;9.476;2024-03-29T00:47:10;5.33;;;4.40;;
50012;SDS011;35901;48.694;9.476;2024-03-29T00:49:36;6.50;;;4.27;;
50012;SDS011;35901;48.694;9.476;2024-03-29T00:52:02;8.93;;;5.37;;
50012;SDS011;35901;48.694;9.476;2024-03-29T00:54:28;5.50;;;4.10;;
50012;SDS011;35901;48.694;9.476;2024-03-29T00:56:54;5.43;;;4.03;;
50012;SDS011;35901;48.694;9.476;2024-03-29T00:59:19;5.27;;;3.67;;
50012;SDS011;35901;48.694;9.476;2024-03-29T01:01:45;4.57;;;4.13;;
50012;SDS011;35901;48.694;9.476;2024-03-29T01:04:11;5.50;;;4.20;;
50012;SDS011;35901;48.694;9.476;2024-03-29T01:06:37;5.27;;;4.10;;
50012;SDS011;35901;48.694;9.476;2024-03-29T01:09:04;8.73;;;4.10;;
50012;SDS011;35901;48.694;9.476;2024-03-29T01:11:30;5.07;;;4.20;;
50012;SDS011;35901;48.694;9.476;2024-03-29T01:13:56;5.57;;;4.00;;
50012;SDS011;35901;48.694;9.476;2024-03-29T01:16:22;6.53;;;4.37;;
50012;SDS011;35901;48.694;9.476;2024-03-29T01:18:48;6.90;;;4.40;;
50012;SDS011;35901;48.694;9.476;2024-03-29T01:21:14;4.20;;;3.80;;
50012;SDS011;35901;48.694;9.476;2024-03-29T01:23:41;5.13;;;3.80;;
50012;SDS011;35901;48.694;9.476;2024-03-29T01:26:07;4.80;;;3.63;;
50012;SDS011;35901;48.694;9.476;2024-03-29T01:28:33;4.37;;;3.97;;
50012;SDS011;35901;48.694;9.476;2024-03-29T01:30:59;5.33;;;3.53;;
50012;SDS011;35901;48.694;9.476;2024-03-29T01:33:25;4.57;;;3.63;;
50012;SDS011;35901;48.694;9.476;2024-03-29T01:35:51;4.30;;;3.70;;
50012;SDS011;35901;48.694;9.476;2024-03-29T01:38:16;4.83;;;4.17;;
50012;SDS011;35901;48.694;9.476;2024-03-29T01:40:42;7.83;;;5.50;;
50012;SDS011;35901;48.694;9.476;2024-03-29T01:43:08;8.27;;;5.90;;
50012;SDS011;35901;48.694;9.476;2024-03-29T01:45:38;6.23;;;4.93;;
50012;SDS011;35901;48.694;9.476;2024-03-29T01:48:05;9.43;;;6.80;;
50012;SDS011;35901;48.694;9.476;2024-03-29T01:50:32;13.30;;;9.90;;
50012;SDS011;35901;48.694;9.476;2024-03-29T01:52:58;19.53;;;13.80;;
50012;SDS011;35901;48.694;9.476;2024-03-29T01:55:25;5.60;;;5.00;;
50012;SDS011;35901;48.694;9.476;2024-03-29T01:57:54;7.00;;;4.97;;
50012;SDS011;35901;48.694;9.476;2024-03-29T02:00:21;15.17;;;11.17;;
50012;SDS011;35901;48.694;9.476;2024-03-29T02:02:47;17.63;;;11.57;;
50012;SDS011;35901;48.694;9.476;2024-03-29T02:05:13;12.40;;;10.00;;
50012;SDS011;35901;48.694;9.476;2024-03-29T02:07:39;11.77;;;9.33;;
50012;SDS011;35901;48.694;9.476;2024-03-29T02:10:05;13.30;;;9.53;;
50012;SDS011;35901;48.694;9.476;2024-03-29T02:12:33;12.33;;;9.30;;
50012;SDS011;35901;48.694;9.476;2024-03-29T02:14:59;13.30;;;9.53;;
50012;SDS011;35901;48.694;9.476;2024-03-29T02:17:27;12.10;;;9.37;;
50012;SDS011;35901;48.694;9.476;2024-03-29T02:19:53;9.07;;;6.80;;
50012;SDS011;35901;48.694;9.476;2024-03-29T02:22:18;9.80;;;7.20;;
50012;SDS011;35901;48.694;9.476;2024-03-29T02:24:47;4.77;;;3.37;;
50012;SDS011;35901;48.694;9.476;2024-03-29T02:27:13;6.03;;;4.47;;
50012;SDS011;35901;48.694;9.476;2024-03-29T02:29:39;4.27;;;3.20;;
50012;SDS011;35901;48.694;9.476;2024-03-29T02:32:04;4.73;;;3.67;;
50012;SDS011;35901;48.694;9.476;2024-03-29T02:34:30;2.90;;;2.47;;
50012;SDS011;35901;48.694;9.476;2024-03-29T02:36:56;1.83;;;1.73;;
50012;SDS011;35901;48.694;9.476;2024-03-29T02:39:22;3.20;;;2.47;;
50012;SDS011;35901;48.694;9.476;2024-03-29T02:41:48;2.10;;;0.80;;
50012;SDS011;35901;48.694;9.476;2024-03-29T02:44:13;0.90;;;0.90;;
50012;SDS011;35901;48.694;9.476;2024-03-29T02:46:41;2.67;;;1.90;;
50012;SDS011;35901;48.694;9.476;2024-03-29T02:49:07;3.53;;;2.00;;
50012;SDS011;35901;48.694;9.476;2024-03-29T02:51:33;0.70;;;0.70;;
50012;SDS011;35901;48.694;9.476;2024-03-29T02:53:58;0.80;;;0.80;;
50012;SDS011;35901;48.694;9.476;2024-03-29T02:56:24;0.70;;;0.70;;
50012;SDS011;35901;48.694;9.476;2024-03-29T02:58:49;1.00;;;1.00;;
50012;SDS011;35901;48.694;9.476;2024-03-29T03:01:15;1.07;;;0.97;;
50012;SDS011;35901;48.694;9.476;2024-03-29T03:03:41;2.27;;;1.20;;
50012;SDS011;35901;48.694;9.476;2024-03-29T03:06:06;1.10;;;1.00;;
50012;SDS011;35901;48.694;9.476;2024-03-29T03:08:32;1.00;;;1.00;;
50012;SDS011;35901;48.694;9.476;2024-03-29T03:11:16;1.23;;;0.90;;
50012;SDS011;35901;48.694;9.476;2024-03-29T03:13:42;1.80;;;1.10;;
50012;SDS011;35901;48.694;9.476;2024-03-29T03:16:08;1.97;;;1.37;;
50012;SDS011;35901;48.694;9.476;2024-03-29T03:18:33;1.87;;;1.77;;
50012;SDS011;35901;48.694;9.476;2024-03-29T03:20:59;1.40;;;1.30;;
50012;SDS011;35901;48.694;9.476;2024-03-29T03:23:25;0.93;;;0.93;;
50012;SDS011;35901;48.694;9.476;2024-03-29T03:26:00;1.40;;;1.00;;
50012;SDS011;35901;48.694;9.476;2024-03-29T03:28:29;0.90;;;0.90;;
50012;SDS011;35901;48.694;9.476;2024-03-29T03:30:54;1.30;;;1.20;;
50012;SDS011;35901;48.694;9.476;2024-03-29T03:33:20;2.00;;;1.20;;
50012;SDS011;35901;48.694;9.476;2024-03-29T03:35:46;3.40;;;1.60;;
50012;SDS011;35901;48.694;9.476;2024-03-29T03:38:12;1.03;;;0.93;;
50012;SDS011;35901;48.694;9.476;2024-03-29T03:40:38;1.33;;;1.23;;
50012;SDS011;35901;48.694;9.476;2024-03-29T03:43:05;1.00;;;1.00;;
50012;SDS011;35901;48.694;9.476;2024-03-29T03:45:34;0.90;;;0.90;;
50012;SDS011;35901;48.694;9.476;2024-03-29T03:48:07;1.10;;;1.10;;
50012;SDS011;35901;48.694;9.476;2024-03-29T03:50:35;1.20;;;1.13;;
50012;SDS011;35901;48.694;9.476;2024-03-29T03:53:01;2.37;;;1.20;;
50012;SDS011;35901;48.694;9.476;2024-03-29T03:55:27;1.00;;;1.00;;
50012;SDS011;35901;48.694;9.476;2024-03-29T03:57:53;1.20;;;1.10;;
50012;SDS011;35901;48.694;9.476;2024-03-29T04:00:19;1.40;;;1.30;;
50012;SDS011;35901;48.694;9.476;2024-03-29T04:02:51;1.80;;;1.50;;
50012;SDS011;35901;48.694;9.476;2024-03-29T04:05:17;2.97;;;1.30;;
50012;SDS011;35901;48.694;9.476;2024-03-29T04:07:44;1.70;;;1.30;;
50012;SDS011;35901;48.694;9.476;2024-03-29T04:10:10;1.90;;;1.20;;
50012;SDS011;35901;48.694;9.476;2024-03-29T04:12:35;1.13;;;1.10;;
50012;SDS011;35901;48.694;9.476;2024-03-29T04:15:01;1.20;;;1.20;;
50012;SDS011;35901;48.694;9.476;2024-03-29T04:17:28;1.13;;;1.10;;
50012;SDS011;35901;48.694;9.476;2024-03-29T04:19:56;0.90;;;0.90;;
50012;SDS011;35901;48.694;9.476;2024-03-29T04:22:22;1.00;;;1.00;;
50012;SDS011;35901;48.694;9.476;2024-03-29T04:24:48;1.00;;;1.00;;
50012;SDS011;35901;48.694;9.476;2024-03-29T04:27:14;1.20;;;1.10;;
50012;SDS011;35901;48.694;9.476;2024-03-29T04:29:39;0.90;;;0.90;;
50012;SDS011;35901;48.694;9.476;2024-03-29T04:32:05;0.83;;;0.83;;
50012;SDS011;35901;48.694;9.476;2024-03-29T04:34:31;0.90;;;0.90;;
50012;SDS011;35901;48.694;9.476;2024-03-29T04:36:56;0.90;;;0.90;;
50012;SDS011;35901;48.694;9.476;2024-03-29T04:39:22;1.77;;;0.90;;
50012;SDS011;35901;48.694;9.476;2024-03-29T04:41:48;0.93;;;0.70;;
50012;SDS011;35901;48.694;9.476;2024-03-29T04:44:13;1.20;;;1.10;;
50012;SDS011;35901;48.694;9.476;2024-03-29T04:46:53;1.10;;;1.10;;
50012;SDS011;35901;48.694;9.476;2024-03-29T04:49:19;1.10;;;1.10;;
50012;SDS011;35901;48.694;9.476;2024-03-29T04:51:51;1.00;;;1.00;;
50012;SDS011;35901;48.694;9.476;2024-03-29T04:54:17;1.63;;;1.20;;
50012;SDS011;35901;48.694;9.476;2024-03-29T04:56:43;1.20;;;1.10;;
50012;SDS011;35901;48.694;9.476;2024-03-29T04:59:08;1.03;;;1.00;;
50012;SDS011;35901;48.694;9.476;2024-03-29T05:01:38;1.20;;;1.10;;
50012;SDS011;35901;48.694;9.476;2024-03-29T05:04:04;1.30;;;1.17;;
50012;SDS011;35901;48.694;9.476;2024-03-29T05:06:31;1.93;;;1.00;;
50012;SDS011;35901;48.694;9.476;2024-03-29T05:08:56;1.00;;;1.00;;
50012;SDS011;35901;48.694;9.476;2024-03-29T05:11:22;1.13;;;1.10;;
50012;SDS011;35901;48.694;9.476;2024-03-29T05:13:48;2.47;;;1.13;;
50012;SDS011;35901;48.694;9.476;2024-03-29T05:16:13;1.00;;;1.00;;
50012;SDS011;35901;48.694;9.476;2024-03-29T05:18:40;1.97;;;1.03;;
50012;SDS011;35901;48.694;9.476;2024-03-29T05:21:05;0.90;;;0.90;;
50012;SDS011;35901;48.694;9.476;2024-03-29T05:23:31;1.57;;;1.10;;
50012;SDS011;35901;48.694;9.476;2024-03-29T05:25:56;0.77;;;0.77;;
50012;SDS011;35901;48.694;9.476;2024-03-29T05:28:22;1.20;;;1.10;;
50012;SDS011;35901;48.694;9.476;2024-03-29T05:30:48;0.97;;;0.90;;
50012;SDS011;35901;48.694;9.476;2024-03-29T05:33:13;1.00;;;0.90;;
50012;SDS011;35901;48.694;9.476;2024-03-29T05:35:40;0.90;;;0.90;;
50012;SDS011;35901;48.694;9.476;2024-03-29T05:38:06;1.10;;;1.00;;
50012;SDS011;35901;48.694;9.476;2024-03-29T05:40:32;1.13;;;0.90;;
50012;SDS011;35901;48.694;9.476;2024-03-29T05:42:57;1.00;;;1.00;;
50012;SDS011;35901;48.694;9.476;2024-03-29T05:45:24;2.00;;;0.80;;
50012;SDS011;35901;48.694;9.476;2024-03-29T05:47:54;1.13;;;0.80;;
50012;SDS011;35901;48.694;9.476;2024-03-29T05:50:21;0.80;;;0.80;;
50012;SDS011;35901;48.694;9.476;2024-03-29T05:52:47;1.03;;;1.00;;
50012;SDS011;35901;48.694;9.476;2024-03-29T05:55:13;1.00;;;0.97;;
50012;SDS011;35901;48.694;9.476;2024-03-29T05:57:39;1.00;;;1.00;;
50012;SDS011;35901;48.694;9.476;2024-03-29T06:00:06;0.80;;;0.80;;
50012;SDS011;35901;48.694;9.476;2024-03-29T06:02:35;0.80;;;0.80;;
50012;SDS011;35901;48.694;9.476;2024-03-29T06:05:01;0.90;;;0.90;;
50012;SDS011;35901;48.694;9.476;2024-03-29T06:07:28;1.00;;;1.00;;
50012;SDS011;35901;48.694;9.476;2024-03-29T06:09:54;0.90;;;0.90;;
50012;SDS011;35901;48.694;9.476;2024-03-29T06:12:20;0.87;;;0.87;;
50012;SDS011;35901;48.694;9.476;2024-03-29T06:14:46;0.90;;;0.90;;
50012;SDS011;35901;48.694;9.476;2024-03-29T06:17:30;0.90;;;0.90;;
50012;SDS011;35901;48.694;9.476;2024-03-29T06:19:56;1.07;;;0.93;;
50012;SDS011;35901;48.694;9.476;2024-03-29T06:22:23;0.90;;;0.90;;
50012;SDS011;35901;48.694;9.476;2024-03-29T06:24:52;0.80;;;0.80;;
50012;SDS011;35901;48.694;9.476;2024-03-29T06:27:18;1.00;;;1.00;;
50012;SDS011;35901;48.694;9.476;2024-03-29T06:29:45;1.10;;;1.00;;
50012;SDS011;35901;48.694;9.476;2024-03-29T06:32:11;1.00;;;1.00;;
50012;SDS011;35901;48.694;9.476;2024-03-29T06:34:37;0.83;;;0.83;;
50012;SDS011;35901;48.694;9.476;2024-03-29T06:37:03;0.80;;;0.80;;
50012;SDS011;35901;48.694;9.476;2024-03-29T06:39:28;0.90;;;0.90;;
50012;SDS011;35901;48.694;9.476;2024-03-29T06:41:54;0.90;;;0.90;;
50012;SDS011;35901;48.694;9.476;2024-03-29T06:44:20;1.00;;;1.00;;
50012;SDS011;35901;48.694;9.476;2024-03-29T06:46:46;0.80;;;0.80;;
50012;SDS011;35901;48.694;9.476;2024-03-29T06:49:11;0.90;;;0.90;;
50012;SDS011;35901;48.694;9.476;2024-03-29T06:51:38;0.90;;;0.90;;
50012;SDS011;35901;48.694;9.476;2024-03-29T06:54:05;1.00;;;1.00;;
50012;SDS011;35901;48.694;9.476;2024-03-29T06:56:31;0.80;;;0.80;;
50012;SDS011;35901;48.694;9.476;2024-03-29T06:58:56;1.83;;;1.00;;
50012;SDS011;35901;48.694;9.476;2024-03-29T07:01:23;1.33;;;1.23;;
50012;SDS011;35901;48.694;9.476;2024-03-29T07:03:48;1.03;;;0.93;;
50012;SDS011;35901;48.694;9.476;2024-03-29T07:06:14;1.20;;;1.10;;
50012;SDS011;35901;48.694;9.476;2024-03-29T07:08:40;1.13;;;1.07;;
50012;SDS011;35901;48.694;9.476;2024-03-29T07:11:06;0.80;;;0.80;;
50012;SDS011;35901;48.694;9.476;2024-03-29T07:13:32;0.90;;;0.90;;
50012;SDS011;35901;48.694;9.476;2024-03-29T07:15:58;1.40;;;0.90;;
50012;SDS011;35901;48.694;9.476;2024-03-29T07:18:25;0.90;;;0.90;;
50012;SDS011;35901;48.694;9.476;2024-03-29T07:20:51;1.70;;;0.90;;
50012;SDS011;35901;48.694;9.476;2024-03-29T07:23:17;1.00;;;1.00;;
50012;SDS011;35901;48.694;9.476;2024-03-29T07:25:44;1.10;;;1.10;;
50012;SDS011;35901;48.694;9.476;2024-03-29T07:28:10;1.13;;;0.90;;
50012;SDS011;35901;48.694;9.476;2024-03-29T07:30:40;1.37;;;1.00;;
50012;SDS011;35901;48.694;9.476;2024-03-29T07:33:06;1.10;;;1.00;;
50012;SDS011;35901;48.694;9.476;2024-03-29T07:35:34;1.00;;;1.00;;
50012;SDS011;35901;48.694;9.476;2024-03-29T07:37:59;1.27;;;1.17;;
50012;SDS011;35901;48.694;9.476;2024-03-29T07:40:25;1.20;;;1.10;;
50012;SDS011;35901;48.694;9.476;2024-03-29T07:42:51;1.73;;;1.47;;
50012;SDS011;35901;48.694;9.476;2024-03-29T07:45:16;1.77;;;1.67;;
50012;SDS011;35901;48.694;9.476;2024-03-29T07:47:42;2.10;;;1.90;;
50012;SDS011;35901;48.694;9.476;2024-03-29T07:50:08;1.60;;;1.50;;
50012;SDS011;35901;48.694;9.476;2024-03-29T07:52:34;1.70;;;1.60;;
50012;SDS011;35901;48.694;9.476;2024-03-29T07:55:00;1.43;;;1.33;;
50012;SDS011;35901;48.694;9.476;2024-03-29T07:57:27;2.20;;;1.30;;
50012;SDS011;35901;48.694;9.476;2024-03-29T07:59:52;1.20;;;1.20;;
50012;SDS011;35901;48.694;9.476;2024-03-29T08:02:18;1.30;;;1.20;;
50012;SDS011;35901;48.694;9.476;2024-03-29T08:04:44;1.40;;;1.30;;
50012;SDS011;35901;48.694;9.476;2024-03-29T08:07:10;2.30;;;1.13;;
50012;SDS011;35901;48.694;9.476;2024-03-29T08:09:37;2.40;;;1.20;;
50012;SDS011;35901;48.694;9.476;2024-03-29T08:12:04;1.77;;;1.67;;
50012;SDS011;35901;48.694;9.476;2024-03-29T08:14:30;3.03;;;2.70;;
50012;SDS011;35901;48.694;9.476;2024-03-29T08:16:56;2.10;;;1.90;;
50012;SDS011;35901;48.694;9.476;2024-03-29T08:19:27;4.00;;;3.60;;
50012;SDS011;35901;48.694;9.476;2024-03-29T08:21:53;4.07;;;3.13;;
50012;SDS011;35901;48.694;9.476;2024-03-29T08:24:18;2.87;;;2.40;;
50012;SDS011;35901;48.694;9.476;2024-03-29T08:26:44;2.17;;;1.83;;
50012;SDS011;35901;48.694;9.476;2024-03-29T08:29:10;1.70;;;1.60;;
50012;SDS011;35901;48.694;9.476;2024-03-29T08:31:36;1.70;;;1.60;;
50012;SDS011;35901;48.694;9.476;2024-03-29T08:34:01;1.87;;;1.77;;
50012;SDS011;35901;48.694;9.476;2024-03-29T08:36:27;2.00;;;1.83;;
50012;SDS011;35901;48.694;9.476;2024-03-29T08:38:52;1.77;;;1.67;;
50012;SDS011;35901;48.694;9.476;2024-03-29T08:41:18;2.33;;;2.13;;
50012;SDS011;35901;48.694;9.476;2024-03-29T08:43:44;2.80;;;2.60;;
50012;SDS011;35901;48.694;9.476;2024-03-29T08:46:09;2.27;;;1.80;;
50012;SDS011;35901;48.694;9.476;2024-03-29T08:48:37;1.70;;;1.60;;
50012;SDS011;35901;48.694;9.476;2024-03-29T08:51:05;2.17;;;1.90;;
50012;SDS011;35901;48.694;9.476;2024-03-29T08:53:30;1.77;;;1.67;;
50012;SDS011;35901;48.694;9.476;2024-03-29T08:55:56;1.73;;;1.63;;
50012;SDS011;35901;48.694;9.476;2024-03-29T08:58:21;1.30;;;1.20;;
50012;SDS011;35901;48.694;9.476;2024-03-29T09:00:52;1.20;;;1.20;;
50012;SDS011;35901;48.694;9.476;2024-03-29T09:05:50;3.47;;;3.17;;
50012;SDS011;35901;48.694;9.476;2024-03-29T09:08:17;3.40;;;3.10;;
50012;SDS011;35901;48.694;9.476;2024-03-29T09:10:43;3.97;;;3.07;;
50012;SDS011;35901;48.694;9.476;2024-03-29T09:13:09;1.70;;;1.60;;
50012;SDS011;35901;48.694;9.476;2024-03-29T09:15:35;1.40;;;1.30;;
50012;SDS011;35901;48.694;9.476;2024-03-29T09:18:01;1.53;;;1.43;;
50012;SDS011;35901;48.694;9.476;2024-03-29T09:20:34;1.50;;;1.40;;
50012;SDS011;35901;48.694;9.476;2024-03-29T09:23:03;1.60;;;1.50;;
50012;SDS011;35901;48.694;9.476;2024-03-29T09:25:29;1.50;;;1.40;;
50012;SDS011;35901;48.694;9.476;2024-03-29T09:27:55;1.50;;;1.40;;
50012;SDS011;35901;48.694;9.476;2024-03-29T09:30:21;1.50;;;1.40;;
50012;SDS011;35901;48.694;9.476;2024-03-29T09:32:47;1.50;;;1.40;;
50012;SDS011;35901;48.694;9.476;2024-03-29T09:35:15;1.27;;;1.20;;
50012;SDS011;35901;48.694;9.476;2024-03-29T09:37:42;1.03;;;1.03;;
50012;SDS011;35901;48.694;9.476;2024-03-29T09:40:07;2.43;;;1.00;;
50012;SDS011;35901;48.694;9.476;2024-03-29T09:42:35;1.90;;;1.50;;
50012;SDS011;35901;48.694;9.476;2024-03-29T09:45:03;1.73;;;1.40;;
50012;SDS011;35901;48.694;9.476;2024-03-29T09:47:31;1.60;;;1.50;;
50012;SDS011;35901;48.694;9.476;2024-03-29T09:50:04;1.80;;;1.70;;
50012;SDS011;35901;48.694;9.476;2024-03-29T09:52:33;2.33;;;1.90;;
50012;SDS011;35901;48.694;9.476;2024-03-29T09:55:02;1.83;;;1.73;;
50012;SDS011;35901;48.694;9.476;2024-03-29T09:57:28;2.67;;;1.60;;
50012;SDS011;35901;48.694;9.476;2024-03-29T09:59:57;1.40;;;1.30;;
50012;SDS011;35901;48.694;9.476;2024-03-29T10:02:24;1.53;;;1.43;;
50012;SDS011;35901;48.694;9.476;2024-03-29T10:04:53;1.53;;;1.43;;
50012;SDS011;35901;48.694;9.476;2024-03-29T10:07:20;1.17;;;1.13;;
50012;SDS011;35901;48.694;9.476;2024-03-29T10:09:47;2.00;;;1.80;;
50012;SDS011;35901;48.694;9.476;2024-03-29T10:12:13;2.23;;;2.03;;
50012;SDS011;35901;48.694;9.476;2024-03-29T10:14:48;2.30;;;2.10;;
50012;SDS011;35901;48.694;9.476;2024-03-29T10:17:20;2.10;;;1.90;;
50012;SDS011;35901;48.694;9.476;2024-03-29T10:19:46;3.03;;;2.30;;
50012;SDS011;35901;48.694;9.476;2024-03-29T10:22:12;2.90;;;1.90;;
50012;SDS011;35901;48.694;9.476;2024-03-29T10:24:38;2.00;;;1.80;;
50012;SDS011;35901;48.694;9.476;2024-03-29T10:27:04;1.50;;;1.40;;
50012;SDS011;35901;48.694;9.476;2024-03-29T10:29:30;1.50;;;1.40;;
50012;SDS011;35901;48.694;9.476;2024-03-29T10:31:56;1.73;;;1.50;;
50012;SDS011;35901;48.694;9.476;2024-03-29T10:34:24;1.57;;;1.47;;
50012;SDS011;35901;48.694;9.476;2024-03-29T10:36:50;2.07;;;1.53;;
50012;SDS011;35901;48.694;9.476;2024-03-29T10:39:16;1.83;;;1.40;;
50012;SDS011;35901;48.694;9.476;2024-03-29T10:41:43;1.30;;;1.20;;
50012;SDS011;35901;48.694;9.476;2024-03-29T10:44:11;1.33;;;1.23;;
50012;SDS011;35901;48.694;9.476;2024-03-29T10:46:38;1.50;;;1.40;;
50012;SDS011;35901;48.694;9.476;2024-03-29T10:49:08;1.63;;;1.53;;
50012;SDS011;35901;48.694;9.476;2024-03-29T10:51:37;1.40;;;1.30;;
50012;SDS011;35901;48.694;9.476;2024-03-29T10:54:04;1.07;;;1.00;;
50012;SDS011;35901;48.694;9.476;2024-03-29T10:56:32;1.50;;;1.40;;
50012;SDS011;35901;48.694;9.476;2024-03-29T10:59:02;1.40;;;1.20;;
50012;SDS011;35901;48.694;9.476;2024-03-29T11:01:37;1.17;;;1.10;;
50012;SDS011;35901;48.694;9.476;2024-03-29T11:04:09;1.53;;;1.20;;
50012;SDS011;35901;48.694;9.476;2024-03-29T11:09:38;1.63;;;1.20;;
50012;SDS011;35901;48.694;9.476;2024-03-29T11:12:05;1.87;;;1.27;;
50012;SDS011;35901;48.694;9.476;2024-03-29T11:14:42;0.97;;;0.93;;
50012;SDS011;35901;48.694;9.476;2024-03-29T11:17:12;1.40;;;1.30;;
50012;SDS011;35901;48.694;9.476;2024-03-29T11:19:39;1.30;;;1.20;;
50012;SDS011;35901;48.694;9.476;2024-03-29T11:22:05;1.70;;;1.60;;
50012;SDS011;35901;48.694;9.476;2024-03-29T11:24:32;1.60;;;1.50;;
50012;SDS011;35901;48.694;9.476;2024-03-29T11:27:06;1.43;;;1.33;;
50012;SDS011;35901;48.694;9.476;2024-03-29T11:29:35;1.63;;;1.53;;
50012;SDS011;35901;48.694;9.476;2024-03-29T11:32:05;1.60;;;1.50;;
50012;SDS011;35901;48.694;9.476;2024-03-29T11:34:31;1.70;;;1.60;;
50012;SDS011;35901;48.694;9.476;2024-03-29T11:39:53;1.77;;;1.60;;
50012;SDS011;35901;48.694;9.476;2024-03-29T11:42:34;1.60;;;1.50;;
50012;SDS011;35901;48.694;9.476;2024-03-29T11:45:04;1.50;;;1.40;;
50012;SDS011;35901;48.694;9.476;2024-03-29T11:47:32;1.63;;;1.50;;
50012;SDS011;35901;48.694;9.476;2024-03-29T11:49:59;1.47;;;1.37;;
50012;SDS011;35901;48.694;9.476;2024-03-29T11:52:26;1.50;;;1.40;;
50012;SDS011;35901;48.694;9.476;2024-03-29T11:54:53;1.93;;;1.70;;
50012;SDS011;35901;48.694;9.476;2024-03-29T11:57:19;2.97;;;1.70;;
50012;SDS011;35901;48.694;9.476;2024-03-29T11:59:45;1.10;;;1.10;;
50012;SDS011;35901;48.694;9.476;2024-03-29T12:02:11;1.40;;;1.30;;
50012;SDS011;35901;48.694;9.476;2024-03-29T12:04:40;1.53;;;1.40;;
50012;SDS011;35901;48.694;9.476;2024-03-29T12:07:06;1.23;;;1.23;;
50012;SDS011;35901;48.694;9.476;2024-03-29T12:09:32;1.80;;;1.50;;
50012;SDS011;35901;48.694;9.476;2024-03-29T12:12:00;1.60;;;1.40;;
50012;SDS011;35901;48.694;9.476;2024-03-29T12:14:33;1.30;;;1.20;;
50012;SDS011;35901;48.694;9.476;2024-03-29T12:17:00;1.30;;;1.20;;
50012;SDS011;35901;48.694;9.476;2024-03-29T12:19:27;2.40;;;1.10;;
50012;SDS011;35901;48.694;9.476;2024-03-29T12:21:53;1.20;;;1.20;;
50012;SDS011;35901;48.694;9.476;2024-03-29T12:24:19;1.00;;;1.00;;
50012;SDS011;35901;48.694;9.476;2024-03-29T12:26:46;1.30;;;1.20;;
50012;SDS011;35901;48.694;9.476;2024-03-29T12:29:14;1.90;;;1.00;;
50012;SDS011;35901;48.694;9.476;2024-03-29T12:31:40;1.37;;;1.27;;
50012;SDS011;35901;48.694;9.476;2024-03-29T12:34:06;1.30;;;1.20;;
50012;SDS011;35901;48.694;9.476;2024-03-29T12:36:32;1.40;;;1.07;;
50012;SDS011;35901;48.694;9.476;2024-03-29T12:39:04;1.50;;;1.40;;
50012;SDS011;35901;48.694;9.476;2024-03-29T12:41:30;1.40;;;1.30;;
50012;SDS011;35901;48.694;9.476;2024-03-29T12:43:57;1.57;;;1.20;;
50012;SDS011;35901;48.694;9.476;2024-03-29T12:46:24;1.17;;;1.10;;
50012;SDS011;35901;48.694;9.476;2024-03-29T12:49:00;1.33;;;1.23;;
50012;SDS011;35901;48.694;9.476;2024-03-29T12:51:26;1.40;;;1.30;;
50012;SDS011;35901;48.694;9.476;2024-03-29T12:53:54;1.17;;;1.17;;
50012;SDS011;35901;48.694;9.476;2024-03-29T12:56:20;1.50;;;1.40;;
50012;SDS011;35901;48.694;9.476;2024-03-29T12:58:46;1.10;;;1.10;;
50012;SDS011;35901;48.694;9.476;2024-03-29T13:01:12;1.17;;;1.17;;
50012;SDS011;35901;48.694;9.476;2024-03-29T13:03:37;1.50;;;1.40;;
50012;SDS011;35901;48.694;9.476;2024-03-29T13:06:06;1.20;;;1.10;;
50012;SDS011;35901;48.694;9.476;2024-03-29T13:08:31;1.30;;;1.20;;
50012;SDS011;35901;48.694;9.476;2024-03-29T13:13:52;1.20;;;1.10;;
50012;SDS011;35901;48.694;9.476;2024-03-29T13:16:17;1.30;;;1.20;;
50012;SDS011;35901;48.694;9.476;2024-03-29T13:18:43;1.00;;;1.00;;
50012;SDS011;35901;48.694;9.476;2024-03-29T13:21:09;1.10;;;1.10;;
50012;SDS011;35901;48.694;9.476;2024-03-29T13:23:35;1.17;;;1.10;;
50012;SDS011;35901;48.694;9.476;2024-03-29T13:26:00;1.50;;;1.40;;
50012;SDS011;35901;48.694;9.476;2024-03-29T13:28:26;1.80;;;1.20;;
50012;SDS011;35901;48.694;9.476;2024-03-29T13:30:52;1.30;;;1.20;;
50012;SDS011;35901;48.694;9.476;2024-03-29T13:33:18;1.10;;;1.10;;
50012;SDS011;35901;48.694;9.476;2024-03-29T13:35:43;1.20;;;1.20;;
50012;SDS011;35901;48.694;9.476;2024-03-29T13:38:10;1.30;;;1.20;;
50012;SDS011;35901;48.694;9.476;2024-03-29T13:40:44;1.30;;;1.20;;
50012;SDS011;35901;48.694;9.476;2024-03-29T13:43:12;1.50;;;1.27;;
50012;SDS011;35901;48.694;9.476;2024-03-29T13:45:37;1.03;;;0.97;;
50012;SDS011;35901;48.694;9.476;2024-03-29T13:48:03;1.10;;;1.00;;
50012;SDS011;35901;48.694;9.476;2024-03-29T13:50:29;2.10;;;1.30;;
50012;SDS011;35901;48.694;9.476;2024-03-29T13:52:55;1.10;;;1.10;;
50012;SDS011;35901;48.694;9.476;2024-03-29T13:55:20;1.90;;;1.23;;
50012;SDS011;35901;48.694;9.476;2024-03-29T13:57:46;1.40;;;1.20;;
50012;SDS011;35901;48.694;9.476;2024-03-29T14:00:12;1.30;;;1.20;;
50012;SDS011;35901;48.694;9.476;2024-03-29T14:02:43;1.63;;;1.10;;
50012;SDS011;35901;48.694;9.476;2024-03-29T14:05:08;1.17;;;1.00;;
50012;SDS011;35901;48.694;9.476;2024-03-29T14:07:34;1.30;;;1.20;;
50012;SDS011;35901;48.694;9.476;2024-03-29T14:10:00;1.67;;;1.20;;
50012;SDS011;35901;48.694;9.476;2024-03-29T14:12:29;1.30;;;1.20;;
50012;SDS011;35901;48.694;9.476;2024-03-29T14:14:54;1.30;;;1.20;;
50012;SDS011;35901;48.694;9.476;2024-03-29T14:17:21;1.13;;;1.10;;
50012;SDS011;35901;48.694;9.476;2024-03-29T14:19:47;1.13;;;1.13;;
50012;SDS011;35901;48.694;9.476;2024-03-29T14:22:14;1.27;;;1.17;;
50012;SDS011;35901;48.694;9.476;2024-03-29T14:24:41;1.40;;;1.30;;
50012;SDS011;35901;48.694;9.476;2024-03-29T14:27:07;1.50;;;1.03;;
50012;SDS011;35901;48.694;9.476;2024-03-29T14:29:33;1.37;;;1.17;;
50012;SDS011;35901;48.694;9.476;2024-03-29T14:31:59;1.20;;;1.10;;
50012;SDS011;35901;48.694;9.476;2024-03-29T14:34:26;1.00;;;1.00;;
50012;SDS011;35901;48.694;9.476;2024-03-29T14:36:52;1.10;;;1.10;;
50012;SDS011;35901;48.694;9.476;2024-03-29T14:39:18;1.10;;;1.00;;
50012;SDS011;35901;48.694;9.476;2024-03-29T14:41:46;1.33;;;1.20;;
50012;SDS011;35901;48.694;9.476;2024-03-29T14:44:13;1.10;;;1.10;;
50012;SDS011;35901;48.694;9.476;2024-03-29T14:46:39;1.50;;;1.33;;
50012;SDS011;35901;48.694;9.476;2024-03-29T14:49:04;1.10;;;1.10;;
50012;SDS011;35901;48.694;9.476;2024-03-29T14:51:35;0.90;;;0.90;;
50012;SDS011;35901;48.694;9.476;2024-03-29T14:54:01;1.07;;;1.07;;
50012;SDS011;35901;48.694;9.476;2024-03-29T14:56:28;1.23;;;1.13;;